createdAt,value
2023-07-19T00:01:34.874Z,45.83
2023-07-19T00:04:03.434Z,39.17
2023-07-19T00:06:31.372Z,41.00
2023-07-19T00:09:00.830Z,36.07
2023-07-19T00:11:28.657Z,35.80
2023-07-19T00:13:56.627Z,36.23
2023-07-19T00:16:25.277Z,37.33
2023-07-19T00:18:57.387Z,37.27
2023-07-19T00:21:28.320Z,34.60
2023-07-19T00:23:56.095Z,36.33
2023-07-19T00:26:25.329Z,38.63
2023-07-19T00:28:55.622Z,36.10
2023-07-19T00:31:24.655Z,35.73
2023-07-19T00:33:52.642Z,32.60
2023-07-19T00:36:20.619Z,35.17
2023-07-19T00:38:49.107Z,33.23
2023-07-19T00:41:16.917Z,34.93
2023-07-19T00:43:49.819Z,35.43
2023-07-19T00:46:17.946Z,34.13
2023-07-19T00:48:46.522Z,29.50
2023-07-19T00:51:14.935Z,31.37
2023-07-19T00:53:45.229Z,32.73
2023-07-19T00:56:13.757Z,31.60
2023-07-19T00:58:44.180Z,33.40
2023-07-19T01:01:14.721Z,32.30
2023-07-19T01:03:42.685Z,37.10
2023-07-19T01:06:10.705Z,35.47
2023-07-19T01:08:38.613Z,37.80
2023-07-19T01:11:06.455Z,33.30
2023-07-19T01:13:34.428Z,29.93
2023-07-19T01:16:02.324Z,31.60
2023-07-19T01:18:32.241Z,30.23
2023-07-19T01:21:10.235Z,33.53
2023-07-19T01:23:46.843Z,31.47
2023-07-19T01:26:14.669Z,32.17
2023-07-19T01:28:42.657Z,33.40
2023-07-19T01:31:13.123Z,30.83
2023-07-19T01:33:41.012Z,31.17
2023-07-19T01:36:08.826Z,36.63
2023-07-19T01:38:37.390Z,34.93
2023-07-19T01:41:06.535Z,32.83
2023-07-19T01:43:34.651Z,30.40
2023-07-19T01:46:02.703Z,32.23
2023-07-19T01:48:30.904Z,30.47
2023-07-19T01:50:58.657Z,33.10
2023-07-19T01:53:27.815Z,30.07
2023-07-19T01:55:57.016Z,29.53
2023-07-19T01:58:28.273Z,31.23
2023-07-19T02:00:56.072Z,35.80
2023-07-19T02:03:25.237Z,30.37
2023-07-19T02:06:00.000Z,30.90
2023-07-19T02:08:27.789Z,28.90
2023-07-19T02:10:56.202Z,32.90
2023-07-19T02:13:24.239Z,31.10
2023-07-19T02:15:53.439Z,33.03
2023-07-19T02:18:23.119Z,28.87
2023-07-19T02:20:54.756Z,27.97
2023-07-19T02:23:22.571Z,30.13
2023-07-19T02:25:50.568Z,36.03
2023-07-19T02:28:19.184Z,30.00
2023-07-19T02:30:47.457Z,31.57
2023-07-19T02:33:17.465Z,29.70
2023-07-19T02:35:46.118Z,33.53
2023-07-19T02:38:15.573Z,28.57
2023-07-19T02:40:43.294Z,33.07
2023-07-19T02:43:12.400Z,31.40
2023-07-19T02:45:40.305Z,35.43
2023-07-19T02:48:08.326Z,28.77
2023-07-19T02:50:39.704Z,35.50
2023-07-19T02:53:08.230Z,29.67
2023-07-19T02:55:35.973Z,28.50
2023-07-19T02:58:04.101Z,29.10
2023-07-19T03:00:31.867Z,30.43
2023-07-19T03:02:59.964Z,30.47
2023-07-19T03:05:28.202Z,30.50
2023-07-19T03:07:57.303Z,33.80
2023-07-19T03:10:26.394Z,31.50
2023-07-19T03:12:55.447Z,30.50
2023-07-19T03:15:23.256Z,31.50
2023-07-19T03:17:51.070Z,34.73
2023-07-19T03:20:19.231Z,28.63
2023-07-19T03:22:47.202Z,32.37
2023-07-19T03:25:16.785Z,35.50
2023-07-19T03:27:45.146Z,35.00
2023-07-19T03:30:13.707Z,28.97
2023-07-19T03:32:42.180Z,30.57
2023-07-19T03:38:00.210Z,29.50
2023-07-19T03:40:30.564Z,27.40
2023-07-19T03:42:58.290Z,30.60
2023-07-19T03:45:29.320Z,28.37
2023-07-19T03:47:57.470Z,28.80
2023-07-19T03:50:26.707Z,30.17
2023-07-19T03:52:54.490Z,30.90
2023-07-19T03:55:23.225Z,29.70
2023-07-19T03:57:52.579Z,36.93
2023-07-19T04:00:21.070Z,30.80
2023-07-19T04:02:51.569Z,29.80
2023-07-19T04:05:19.689Z,29.50
2023-07-19T04:07:47.572Z,29.93
2023-07-19T04:10:16.028Z,29.53
2023-07-19T04:12:43.733Z,28.20
2023-07-19T04:15:14.946Z,29.30
2023-07-19T04:17:43.002Z,29.17
2023-07-19T04:20:11.947Z,29.10
2023-07-19T04:22:40.719Z,29.70
2023-07-19T04:27:58.829Z,33.13
2023-07-19T04:30:28.355Z,30.50
2023-07-19T04:32:56.692Z,27.60
2023-07-19T04:35:24.670Z,28.97
2023-07-19T04:37:53.376Z,35.23
2023-07-19T04:40:21.113Z,27.77
2023-07-19T04:42:49.905Z,30.87
2023-07-19T04:45:18.258Z,29.97
2023-07-19T04:47:47.512Z,29.40
2023-07-19T04:50:16.811Z,29.83
2023-07-19T04:52:46.435Z,31.33
2023-07-19T04:55:14.756Z,28.50
2023-07-19T04:57:43.002Z,29.43
2023-07-19T05:00:18.824Z,28.70
2023-07-19T05:02:48.764Z,34.07
2023-07-19T05:05:16.539Z,27.17
2023-07-19T05:07:44.856Z,31.93
2023-07-19T05:10:12.642Z,31.47
2023-07-19T05:12:41.800Z,31.93
2023-07-19T05:15:10.383Z,33.00
2023-07-19T05:17:38.447Z,28.70
2023-07-19T05:20:09.207Z,28.73
2023-07-19T05:22:37.495Z,29.83
2023-07-19T05:25:05.565Z,27.70
2023-07-19T05:27:33.355Z,31.60
2023-07-19T05:30:01.962Z,31.80
2023-07-19T05:32:32.068Z,30.93
2023-07-19T05:35:00.461Z,27.33
2023-07-19T05:37:29.696Z,30.10
2023-07-19T05:39:57.959Z,28.47
2023-07-19T05:42:25.952Z,27.73
2023-07-19T05:44:53.839Z,27.70
2023-07-19T05:47:22.008Z,30.30
2023-07-19T05:49:49.954Z,28.60
2023-07-19T05:52:17.988Z,42.43
2023-07-19T05:54:48.991Z,27.30
2023-07-19T05:57:17.597Z,29.30
2023-07-19T05:59:45.690Z,27.20
2023-07-19T06:02:13.654Z,31.30
2023-07-19T06:04:41.487Z,30.63
2023-07-19T06:07:09.643Z,30.00
2023-07-19T06:09:37.470Z,31.20
2023-07-19T06:12:07.551Z,28.97
2023-07-19T06:14:36.842Z,29.97
2023-07-19T06:17:04.895Z,32.93
2023-07-19T06:19:32.889Z,29.60
2023-07-19T06:22:00.902Z,32.00
2023-07-19T06:24:28.851Z,31.10
2023-07-19T06:26:57.257Z,32.27
2023-07-19T06:29:26.655Z,30.33
2023-07-19T06:31:54.520Z,28.40
2023-07-19T06:34:22.402Z,29.80
2023-07-19T06:36:50.069Z,28.60
2023-07-19T06:39:19.443Z,29.77
2023-07-19T06:41:47.701Z,31.83
2023-07-19T06:44:18.497Z,33.10
2023-07-19T06:46:47.599Z,45.97
2023-07-19T06:49:15.429Z,29.10
2023-07-19T06:51:43.180Z,27.60
2023-07-19T06:54:15.311Z,37.60
2023-07-19T06:56:45.131Z,33.63
2023-07-19T06:59:12.998Z,28.37
2023-07-19T07:01:40.972Z,27.37
2023-07-19T07:04:10.541Z,30.63
2023-07-19T07:06:38.393Z,30.17
2023-07-19T07:09:06.217Z,32.50
2023-07-19T07:11:34.063Z,26.83
2023-07-19T07:14:02.271Z,30.17
2023-07-19T07:16:31.047Z,28.70
2023-07-19T07:18:59.064Z,30.80
2023-07-19T07:21:28.234Z,29.77
2023-07-19T07:23:56.196Z,28.40
2023-07-19T07:26:24.258Z,25.97
2023-07-19T07:28:51.986Z,25.93
2023-07-19T07:31:21.781Z,24.50
2023-07-19T07:33:50.071Z,27.93
2023-07-19T07:36:17.784Z,25.23
2023-07-19T07:38:50.369Z,25.10
2023-07-19T07:41:18.356Z,29.63
2023-07-19T07:43:46.125Z,27.77
2023-07-19T07:46:14.009Z,29.03
2023-07-19T07:48:42.467Z,27.50
2023-07-19T07:51:10.543Z,41.23
2023-07-19T07:53:38.384Z,31.63
2023-07-19T07:56:07.829Z,27.90
2023-07-19T07:58:35.931Z,24.40
2023-07-19T08:01:04.125Z,27.20
2023-07-19T08:03:32.416Z,30.90
2023-07-19T08:06:00.211Z,22.10
2023-07-19T08:08:28.253Z,31.57
2023-07-19T08:10:56.054Z,22.60
2023-07-19T08:13:26.226Z,24.97
2023-07-19T08:15:54.775Z,32.03
2023-07-19T08:18:22.575Z,27.40
2023-07-19T08:20:51.913Z,29.13
2023-07-19T08:23:20.704Z,27.93
2023-07-19T08:25:48.462Z,29.33
2023-07-19T08:28:16.244Z,30.83
2023-07-19T08:30:45.469Z,28.43
2023-07-19T08:33:13.227Z,30.20
2023-07-19T08:35:41.361Z,28.50
2023-07-19T08:38:10.653Z,29.10
2023-07-19T08:40:39.755Z,28.87
2023-07-19T08:43:07.890Z,27.30
2023-07-19T08:45:37.390Z,28.47
2023-07-19T08:48:07.728Z,33.53
2023-07-19T08:50:36.320Z,27.00
2023-07-19T08:53:04.311Z,28.37
2023-07-19T08:55:33.258Z,26.90
2023-07-19T08:58:01.593Z,37.93
2023-07-19T09:00:33.150Z,24.90
2023-07-19T09:03:00.980Z,34.03
2023-07-19T09:05:31.261Z,31.93
2023-07-19T09:08:02.809Z,37.03
2023-07-19T09:10:30.775Z,29.10
2023-07-19T09:12:58.852Z,44.40
2023-07-19T09:15:29.026Z,26.90
2023-07-19T09:17:57.069Z,40.80
2023-07-19T09:20:28.586Z,28.53
2023-07-19T09:22:58.145Z,34.70
2023-07-19T09:25:26.354Z,27.97
2023-07-19T09:27:54.635Z,29.77
2023-07-19T09:30:22.498Z,31.47
2023-07-19T09:32:59.789Z,26.87
2023-07-19T09:35:28.469Z,27.87
2023-07-19T09:37:56.790Z,27.97
2023-07-19T09:40:26.640Z,24.63
2023-07-19T09:42:56.503Z,24.60
2023-07-19T09:45:28.439Z,28.57
2023-07-19T09:47:58.044Z,27.60
2023-07-19T09:50:27.125Z,33.23
2023-07-19T09:52:58.015Z,29.00
2023-07-19T09:55:27.845Z,25.67
2023-07-19T09:57:56.116Z,27.83
2023-07-19T10:00:24.600Z,29.73
2023-07-19T10:02:52.397Z,28.60
2023-07-19T10:05:28.026Z,31.67
2023-07-19T10:07:55.879Z,29.67
2023-07-19T10:10:23.825Z,26.10
2023-07-19T10:12:53.167Z,33.53
2023-07-19T10:15:23.473Z,31.30
2023-07-19T10:18:00.069Z,26.90
2023-07-19T10:20:29.961Z,29.43
2023-07-19T10:22:59.355Z,29.60
2023-07-19T10:25:29.439Z,29.23
2023-07-19T10:28:00.626Z,29.67
2023-07-19T10:30:51.642Z,26.87
2023-07-19T10:33:21.048Z,34.53
2023-07-19T10:35:51.027Z,33.50
2023-07-19T10:38:20.781Z,28.50
2023-07-19T10:40:49.545Z,26.77
2023-07-19T10:43:27.905Z,39.93
2023-07-19T10:46:08.980Z,35.37
2023-07-19T10:48:40.345Z,36.83
2023-07-19T10:51:10.447Z,27.97
2023-07-19T10:53:45.416Z,31.20
2023-07-19T10:56:15.455Z,37.67
2023-07-19T10:58:44.915Z,27.23
2023-07-19T11:01:13.387Z,29.73
2023-07-19T11:03:45.670Z,30.13
2023-07-19T11:06:13.533Z,28.73
2023-07-19T11:08:41.355Z,27.10
2023-07-19T11:11:12.724Z,26.77
2023-07-19T11:13:40.796Z,25.80
2023-07-19T11:16:09.888Z,31.67
2023-07-19T11:18:38.821Z,26.00
2023-07-19T11:21:07.742Z,28.27
2023-07-19T11:23:38.944Z,28.87
2023-07-19T11:26:07.662Z,27.07
2023-07-19T11:28:36.009Z,26.43
2023-07-19T11:31:06.354Z,34.37
2023-07-19T11:33:37.539Z,28.50
2023-07-19T11:36:07.671Z,27.13
2023-07-19T11:38:35.828Z,36.07
2023-07-19T11:41:03.636Z,27.63
2023-07-19T11:43:31.882Z,32.13
2023-07-19T11:46:01.461Z,26.27
2023-07-19T11:48:29.248Z,29.97
2023-07-19T11:50:59.379Z,26.80
2023-07-19T11:53:28.543Z,27.57
2023-07-19T11:56:02.328Z,27.90
2023-07-19T11:58:44.646Z,30.03
2023-07-19T12:01:14.025Z,32.97
2023-07-19T12:03:42.209Z,29.73
2023-07-19T12:06:12.179Z,31.83
2023-07-19T12:08:40.404Z,28.97
2023-07-19T12:11:08.419Z,36.60
2023-07-19T12:13:36.700Z,28.40
2023-07-19T12:16:05.221Z,33.23
2023-07-19T12:18:33.393Z,29.97
2023-07-19T12:21:01.161Z,33.40
2023-07-19T12:23:34.497Z,34.07
2023-07-19T12:26:03.562Z,29.13
2023-07-19T12:28:31.408Z,29.50
2023-07-19T12:30:59.253Z,31.67
2023-07-19T12:33:27.085Z,29.40
2023-07-19T12:35:55.064Z,30.33
2023-07-19T12:38:22.832Z,36.30
2023-07-19T12:40:52.399Z,28.90
2023-07-19T12:43:20.525Z,28.67
2023-07-19T12:45:48.481Z,35.53
2023-07-19T12:48:16.405Z,32.60
2023-07-19T12:50:44.205Z,29.33
2023-07-19T12:53:11.958Z,35.53
2023-07-19T12:55:40.172Z,35.20
2023-07-19T12:58:09.386Z,29.80
2023-07-19T13:00:38.042Z,37.40
2023-07-19T13:03:06.084Z,32.53
2023-07-19T13:05:34.379Z,34.17
2023-07-19T13:08:02.168Z,29.13
2023-07-19T13:10:30.366Z,31.57
2023-07-19T13:12:58.134Z,30.50
2023-07-19T13:15:27.942Z,33.43
2023-07-19T13:17:56.428Z,29.93
2023-07-19T13:20:24.793Z,31.87
2023-07-19T13:22:52.871Z,29.00
2023-07-19T13:25:21.021Z,26.80
2023-07-19T13:27:48.730Z,29.10
2023-07-19T13:30:16.673Z,30.67
2023-07-19T13:32:46.074Z,31.37
2023-07-19T13:35:53.790Z,30.70
2023-07-19T13:40:33.219Z,31.80
2023-07-19T13:43:01.722Z,31.80
2023-07-19T13:45:29.732Z,28.77
2023-07-19T13:47:58.977Z,27.70
2023-07-19T13:50:26.750Z,30.50
2023-07-19T13:52:55.055Z,35.10
2023-07-19T13:55:22.807Z,30.57
2023-07-19T13:57:50.559Z,30.23
2023-07-19T14:00:18.781Z,32.00
2023-07-19T14:02:49.767Z,29.77
2023-07-19T14:05:19.061Z,32.80
2023-07-19T14:07:46.875Z,31.77
2023-07-19T14:10:14.832Z,30.37
2023-07-19T14:12:42.833Z,30.60
2023-07-19T14:15:10.648Z,29.37
2023-07-19T14:17:38.983Z,30.90
2023-07-19T14:20:08.092Z,32.47
2023-07-19T14:22:37.556Z,29.77
2023-07-19T14:25:05.997Z,31.20
2023-07-19T14:27:36.178Z,28.90
2023-07-19T14:30:04.050Z,30.67
2023-07-19T14:32:32.258Z,27.90
2023-07-19T14:35:01.609Z,35.33
2023-07-19T14:37:30.365Z,28.77
2023-07-19T14:40:00.161Z,33.60
2023-07-19T14:42:28.551Z,36.00
2023-07-19T14:44:56.291Z,28.77
2023-07-19T14:47:25.028Z,27.07
2023-07-19T14:49:52.984Z,31.23
2023-07-19T14:52:20.977Z,27.50
2023-07-19T14:54:48.713Z,30.30
2023-07-19T14:57:18.175Z,29.33
2023-07-19T14:59:48.028Z,33.30
2023-07-19T15:05:01.152Z,30.83
2023-07-19T15:07:29.784Z,28.20
2023-07-19T15:09:57.530Z,32.13
2023-07-19T15:12:27.410Z,30.33
2023-07-19T15:14:55.685Z,33.20
2023-07-19T15:17:24.424Z,27.07
2023-07-19T15:19:55.209Z,28.83
2023-07-19T15:22:23.041Z,27.40
2023-07-19T15:24:50.984Z,28.57
2023-07-19T15:27:19.887Z,30.97
2023-07-19T15:29:49.106Z,31.83
2023-07-19T15:32:17.189Z,35.50
2023-07-19T15:34:45.170Z,30.03
2023-07-19T15:37:13.084Z,33.17
2023-07-19T15:39:41.076Z,29.53
2023-07-19T15:42:09.270Z,29.30
2023-07-19T15:44:37.376Z,32.90
2023-07-19T15:47:08.681Z,29.17
2023-07-19T15:49:37.563Z,28.40
2023-07-19T15:52:05.673Z,28.80
2023-07-19T15:54:34.071Z,28.60
2023-07-19T15:57:02.229Z,29.43
2023-07-19T15:59:30.155Z,29.00
2023-07-19T16:01:57.938Z,34.27
2023-07-19T16:04:27.598Z,35.53
2023-07-19T16:06:55.348Z,31.70
2023-07-19T16:09:23.136Z,28.87
2023-07-19T16:11:51.368Z,30.33
2023-07-19T16:14:19.173Z,31.57
2023-07-19T16:16:46.941Z,30.90
2023-07-19T16:19:16.380Z,29.33
2023-07-19T16:21:45.854Z,34.00
2023-07-19T16:24:13.915Z,30.53
2023-07-19T16:26:41.875Z,31.90
2023-07-19T16:29:09.640Z,28.30
2023-07-19T16:31:37.574Z,35.30
2023-07-19T16:34:05.764Z,30.40
2023-07-19T16:36:34.106Z,32.30
2023-07-19T16:39:04.368Z,29.10
2023-07-19T16:41:33.168Z,29.70
2023-07-19T16:44:01.040Z,30.73
2023-07-19T16:46:29.004Z,40.93
2023-07-19T16:48:57.195Z,37.57
2023-07-19T16:51:25.139Z,31.17
2023-07-19T16:53:52.853Z,30.97
2023-07-19T16:56:22.428Z,30.20
2023-07-19T16:58:50.272Z,33.03
2023-07-19T17:01:18.326Z,35.37
2023-07-19T17:03:46.494Z,32.57
2023-07-19T17:06:14.774Z,32.20
2023-07-19T17:08:42.624Z,34.80
2023-07-19T17:11:10.840Z,33.93
2023-07-19T17:13:40.735Z,34.03
2023-07-19T17:16:08.487Z,32.20
2023-07-19T17:18:36.470Z,32.90
2023-07-19T17:21:05.807Z,36.07
2023-07-19T17:23:34.139Z,32.93
2023-07-19T17:26:02.176Z,36.23
2023-07-19T17:28:30.169Z,35.20
2023-07-19T17:31:00.058Z,37.10
2023-07-19T17:33:28.794Z,34.23
2023-07-19T17:35:56.548Z,33.63
2023-07-19T17:38:27.126Z,32.30
2023-07-19T17:40:56.139Z,32.60
2023-07-19T17:43:24.087Z,32.80
2023-07-19T17:45:52.042Z,32.77
2023-07-19T17:48:21.156Z,32.33
2023-07-19T17:50:49.279Z,35.57
2023-07-19T17:53:17.056Z,35.07
2023-07-19T17:55:45.273Z,32.80
2023-07-19T17:58:12.992Z,34.20
2023-07-19T18:00:41.826Z,34.03
2023-07-19T18:03:09.862Z,33.87
2023-07-19T18:05:39.651Z,31.67
2023-07-19T18:08:21.199Z,34.27
2023-07-19T18:10:50.786Z,33.67
2023-07-19T18:13:18.549Z,38.17
2023-07-19T18:15:46.949Z,38.27
2023-07-19T18:18:14.868Z,35.67
2023-07-19T18:20:44.974Z,41.50
2023-07-19T18:23:14.445Z,36.10
2023-07-19T18:25:42.390Z,32.00
2023-07-19T18:28:10.639Z,33.63
2023-07-19T18:30:38.699Z,35.80
2023-07-19T18:33:06.616Z,37.30
2023-07-19T18:35:34.703Z,46.53
2023-07-19T18:38:03.955Z,32.83
2023-07-19T18:40:32.092Z,34.97
2023-07-19T18:43:00.034Z,33.90
2023-07-19T18:45:27.954Z,38.40
2023-07-19T18:47:55.766Z,40.40
2023-07-19T18:50:23.899Z,43.80
2023-07-19T18:52:51.699Z,45.20
2023-07-19T18:55:21.101Z,40.40
2023-07-19T18:57:50.660Z,38.13
2023-07-19T19:00:18.681Z,41.83
2023-07-19T19:02:46.615Z,38.80
2023-07-19T19:05:14.394Z,41.57
2023-07-19T19:07:43.033Z,39.60
2023-07-19T19:10:11.029Z,36.43
2023-07-19T19:12:40.593Z,38.93
2023-07-19T19:15:09.005Z,37.57
2023-07-19T19:17:36.966Z,39.80
2023-07-19T19:20:05.397Z,39.07
2023-07-19T19:22:35.639Z,44.27
2023-07-19T19:25:04.028Z,36.57
2023-07-19T19:27:31.895Z,37.20
2023-07-19T19:30:01.092Z,37.87
2023-07-19T19:32:29.965Z,36.93
2023-07-19T19:34:58.146Z,44.10
2023-07-19T19:37:26.176Z,39.23
2023-07-19T19:39:53.976Z,40.90
2023-07-19T19:42:22.473Z,30.77
2023-07-19T19:44:50.840Z,34.17
2023-07-19T19:47:20.378Z,37.33
2023-07-19T19:49:48.965Z,30.27
2023-07-19T19:52:17.482Z,30.80
2023-07-19T19:54:45.590Z,33.43
2023-07-19T19:57:16.075Z,27.83
2023-07-19T19:59:44.616Z,28.23
2023-07-19T20:04:45.709Z,32.30
2023-07-19T20:07:35.511Z,29.93
2023-07-19T20:12:44.953Z,34.07
2023-07-19T20:15:12.862Z,26.33
2023-07-19T20:17:42.322Z,24.67
2023-07-19T20:22:50.406Z,27.90
2023-07-19T20:25:41.180Z,28.10
2023-07-19T20:28:06.652Z,28.03
2023-07-19T20:30:44.351Z,28.70
2023-07-19T20:33:19.941Z,27.87
2023-07-19T20:43:22.157Z,27.60
2023-07-19T20:45:49.922Z,28.17
2023-07-19T20:48:17.946Z,28.97
2023-07-19T20:50:45.668Z,29.37
2023-07-19T20:53:14.872Z,28.33
2023-07-19T20:55:42.842Z,29.50
2023-07-19T20:58:10.840Z,29.13
2023-07-19T21:00:38.716Z,30.13
2023-07-19T21:03:06.737Z,28.93
2023-07-19T21:05:34.835Z,27.67
2023-07-19T21:08:02.637Z,29.87
2023-07-19T21:10:33.093Z,31.13
2023-07-19T21:13:02.306Z,35.20
2023-07-19T21:15:30.070Z,31.13
2023-07-19T21:17:58.160Z,28.10
2023-07-19T21:20:26.138Z,27.90
2023-07-19T21:22:55.806Z,27.40
2023-07-19T21:25:23.922Z,28.70
2023-07-19T21:27:53.233Z,27.90
2023-07-19T21:30:21.182Z,28.10
2023-07-19T21:32:49.338Z,29.53
2023-07-19T21:35:17.366Z,24.60
2023-07-19T21:37:45.264Z,25.60
2023-07-19T21:40:15.505Z,25.47
2023-07-19T21:42:43.372Z,24.20
2023-07-19T21:45:12.834Z,26.33
2023-07-19T21:47:40.667Z,29.73
2023-07-19T21:50:08.975Z,32.63
2023-07-19T21:52:36.711Z,28.90
2023-07-19T21:55:04.682Z,37.37
2023-07-19T21:57:32.701Z,23.97
2023-07-19T22:00:00.477Z,25.50
2023-07-19T22:02:29.678Z,27.60
2023-07-19T22:04:57.968Z,25.43
2023-07-19T22:07:25.671Z,34.93
2023-07-19T22:09:53.844Z,27.73
2023-07-19T22:12:22.235Z,34.87
2023-07-19T22:15:05.521Z,24.53
2023-07-19T22:17:37.610Z,31.73
2023-07-19T22:20:06.028Z,26.47
2023-07-19T22:22:33.876Z,27.53
2023-07-19T22:25:02.293Z,28.97
2023-07-19T22:27:29.989Z,32.23
2023-07-19T22:29:57.854Z,36.33
2023-07-19T22:32:25.838Z,31.53
2023-07-19T22:34:57.310Z,26.93
2023-07-19T22:37:25.457Z,26.97
2023-07-19T22:39:53.181Z,27.23
2023-07-19T22:42:21.931Z,32.17
2023-07-19T22:44:49.876Z,26.30
2023-07-19T22:47:17.766Z,24.50
2023-07-19T22:49:46.216Z,25.07
2023-07-19T22:52:15.689Z,30.13
2023-07-19T22:54:43.500Z,26.10
2023-07-19T22:57:11.384Z,29.10
2023-07-19T22:59:39.677Z,25.30
2023-07-19T23:02:07.431Z,32.90
2023-07-19T23:04:35.265Z,37.30
2023-07-19T23:07:04.544Z,37.13
2023-07-19T23:09:35.887Z,27.57
2023-07-19T23:12:04.124Z,34.10
2023-07-19T23:14:31.837Z,29.87
2023-07-19T23:16:59.972Z,29.93
2023-07-19T23:19:29.691Z,23.93
2023-07-19T23:21:58.180Z,28.13
2023-07-19T23:24:26.466Z,32.63
2023-07-19T23:26:56.089Z,29.17
2023-07-19T23:29:25.839Z,50.83
2023-07-19T23:31:54.753Z,50.60
2023-07-19T23:34:22.742Z,28.43
2023-07-19T23:36:52.314Z,29.93
2023-07-19T23:39:20.249Z,30.93
2023-07-19T23:41:48.380Z,34.43
2023-07-19T23:44:17.465Z,55.13
2023-07-19T23:46:45.484Z,66.30
2023-07-19T23:49:14.468Z,71.80
2023-07-19T23:51:43.180Z,45.63
2023-07-19T23:54:11.085Z,59.37
2023-07-19T23:56:39.054Z,112.80
2023-07-19T23:59:06.791Z,81.50
